Flight Track Log - Related Links

Times and Time Zones

All times are in EDT time to prevent confusion due to time zone crossing. See the CHQ4762 flight status page for this flight to view local times or setup timezone preferences in your user account.

Time Position Orientation Groundspeed Altitude Reporting Facility
EDT Latitude Longitude Course Direction KTS MPH feet Rate Location/Type
Tue 10:31:06 AM 42.0000 -87.9667 172° South 171 197 2,500  Level Chicago TRACON
Tue 10:32:00 AM 41.9500 -87.9833 194° South 213 245 4,400 2,000 Climbing Chicago TRACON
Tue 10:33:06 AM 41.8833 -87.9333 151° Southeast 261 300 6,500 2,000 Climbing Chicago TRACON
Tue 10:33:24 AM 41.8686 -87.9031 123° Southeast 258 297 7,200 2,250 Climbing Chicago Center
Tue 10:34:00 AM 41.6565 -87.6673 157° South  Level Estimated
Tue 10:34:26 AM 41.8103 -87.8425 142° Southeast 268 308 9,500  Level Chicago Center
Tue 10:35:00 AM 41.5751 -87.6078 156° South  Level Estimated
Tue 10:35:28 AM 41.7383 -87.7911 152° Southeast 288 331 10,900  Level Chicago Center
Tue 10:36:00 AM 41.4964 -87.5924 172° South  Level FlightAware Approximate
Tue 10:36:29 AM 41.6597 -87.7367 153° Southeast 311 358 12,600  Level Chicago Center
Tue 10:37:31 AM 41.5767 -87.6778 152° Southeast 332 382 14,500 1,452 Climbing Chicago Center
Tue 10:38:33 AM 41.4914 -87.6183 152° Southeast 341 392 15,600 1,258 Climbing Chicago Center
Tue 10:39:35 AM 41.3978 -87.5681 158° South 367 422 17,100 1,355 Climbing Chicago Center
Tue 10:40:37 AM 41.3008 -87.5511 173° South 351 404 18,400 1,512 Climbing Chicago Center
Tue 10:41:38 AM 41.1878 -87.4958 160° South 368 423 20,200 1,561 Climbing Chicago Center
Tue 10:42:40 AM 41.0931 -87.4386 156° South 372 428 21,600 1,248 Climbing Chicago Center
Tue 10:43:43 AM 40.9975 -87.3797 155° Southeast 377 434 22,800 677 Climbing Chicago Center
Tue 10:44:44 AM 40.8989 -87.3189 155° Southeast 386 444 23,000 98 Climbing Chicago Center
Tue 10:45:46 AM 40.7992 -87.2583 155° Southeast 393 452 23,000  Level Chicago Center
Tue 10:46:47 AM 40.6989 -87.1986 156° South 395 455 23,000 -976 Level Chicago Center
Tue 10:47:49 AM 40.6017 -87.1392 155° Southeast 391 450 21,000 -2,177 Descending Chicago Center
Tue 10:48:51 AM 40.4900 -87.0703 155° Southeast 372 428 18,500 -2,177 Descending Chicago Center
Tue 10:49:53 AM 40.4000 -87.0172 156° South 357 411 16,500 -1,951 Descending Chicago Center
Tue 10:50:54 AM 40.3103 -86.9631 155° Southeast 355 409 14,500 -1,707 Descending Chicago Center
Tue 10:51:56 AM 40.2211 -86.9100 156° South 351 404 13,000 -774 Descending Chicago Center
Tue 10:52:58 AM 40.1400 -86.8458 149° Southeast 344 396 12,900 -635 Descending Chicago Center
Tue 10:53:40 AM 40.0975 -86.7775 129° Southeast 345 397 11,900 -1,500 Descending Indianapolis Center
Tue 10:54:42 AM 40.0347 -86.6858 132° Southeast 341 392 10,300 -927 Descending Indianapolis Center
Tue 10:55:43 AM 39.9564 -86.5900 137° Southeast 335 386 10,000 -537 Descending Indianapolis Center
Tue 10:56:45 AM 39.8953 -86.5267 142° Southeast 318 366 9,200 -1,161 Descending Indianapolis Center
Tue 10:57:47 AM 39.8453 -86.4717 140° Southeast 274 315 7,600 -1,073 Descending Indianapolis Center
Tue 10:58:48 AM 39.8225 -86.3842 109° East 274 315 7,000 -833 Descending Indianapolis Center
Tue 10:59:35 AM 39.8500 -86.3000 67° East 276 318 6,100 -1,346 Descending Indianapolis TRACON
Tue 11:00:35 AM 39.8667 -86.2167 75° East 265 305 4,600 -1,375 Descending Indianapolis TRACON
Tue 11:01:11 AM 39.8500 -86.1667 113° Southeast 231 266 3,900 -944 Descending Indianapolis TRACON
Tue 11:02:23 AM 39.8000 -86.2000 207° Southwest 164 189 2,900 -773 Descending Indianapolis TRACON
Tue 11:03:23 AM 39.7833 -86.2333 237° Southwest 129 148 2,200 -700 Descending Indianapolis TRACON

Login

Don't have an account? Register now (free) for customized features, flight alerts, and more!